Time;durP1;ratioP1;P1;durP2;ratioP2;P2;SDS_P1;SDS_P2;PMS_P1;PMS_P2;Temp;Humidity;BMP_temperature;BMP_pressure;BME280_temperature;BME280_humidity;BME280_pressure;Samples;Min_cycle;Max_cycle;Signal;HPM_P1;HPM_P2
2023/09/09 00:00:53;;;;;;;10.60;9.40;;;19.50;99.90;;;;;;5091309;28;20431;-69
2023/09/09 00:03:19;;;;;;;14.67;10.93;;;19.50;99.90;;;;;;5092777;28;20757;-69
2023/09/09 00:05:45;;;;;;;11.97;10.33;;;19.40;99.90;;;;;;5092860;28;20447;-69
2023/09/09 00:08:10;;;;;;;19.00;10.40;;;19.30;99.90;;;;;;5092735;28;20892;-69
2023/09/09 00:10:37;;;;;;;11.03;9.83;;;19.30;99.90;;;;;;5091270;28;20179;-69
2023/09/09 00:13:04;;;;;;;12.60;10.40;;;19.20;99.90;;;;;;5092718;28;20202;-69
2023/09/09 00:15:31;;;;;;;14.43;10.37;;;19.20;99.90;;;;;;5091070;28;20436;-69
2023/09/09 00:17:57;;;;;;;14.80;10.87;;;19.10;99.90;;;;;;5092529;28;20490;-69
2023/09/09 00:20:38;;;;;;;16.20;10.60;;;19.00;99.90;;;;;;5092412;28;20409;-69
2023/09/09 00:23:07;;;;;;;14.63;10.30;;;19.00;99.90;;;;;;5090921;28;20584;-69
2023/09/09 00:25:34;;;;;;;12.30;9.87;;;18.90;99.90;;;;;;5090413;28;20448;-69
2023/09/09 00:28:00;;;;;;;16.23;11.60;;;18.90;99.90;;;;;;5091970;28;20788;-69
2023/09/09 00:30:25;;;;;;;11.93;10.63;;;18.90;99.90;;;;;;5091690;28;20417;-69
2023/09/09 00:32:51;;;;;;;15.00;10.80;;;18.90;99.90;;;;;;5090793;28;20674;-69
2023/09/09 00:35:17;;;;;;;12.50;10.40;;;18.80;99.90;;;;;;5072553;28;20182;-69
2023/09/09 00:37:42;;;;;;;20.47;11.47;;;18.80;99.90;;;;;;5091180;28;20926;-69
2023/09/09 00:40:08;;;;;;;14.80;11.87;;;18.80;99.90;;;;;;5091203;28;20178;-69
2023/09/09 00:42:33;;;;;;;12.07;10.80;;;18.80;99.90;;;;;;5091389;28;20182;-70
2023/09/09 00:44:59;;;;;;;13.40;11.80;;;18.70;99.90;;;;;;5091130;28;20201;-69
2023/09/09 00:47:25;;;;;;;16.13;12.13;;;18.60;99.90;;;;;;5090944;28;20662;-69
2023/09/09 00:49:51;;;;;;;14.40;11.80;;;18.60;99.90;;;;;;5091045;28;20189;-69
2023/09/09 00:52:17;;;;;;;21.00;13.27;;;18.60;99.90;;;;;;5091053;28;20483;-69
2023/09/09 00:54:43;;;;;;;13.93;11.87;;;18.60;99.90;;;;;;5090901;28;20689;-69
2023/09/09 00:57:10;;;;;;;12.90;11.30;;;18.50;99.90;;;;;;5090637;28;20212;-69
2023/09/09 00:59:36;;;;;;;13.67;12.20;;;18.50;99.90;;;;;;5089658;28;20178;-69
2023/09/09 01:02:02;;;;;;;16.00;12.40;;;18.50;99.90;;;;;;5090591;28;20517;-69
2023/09/09 01:04:28;;;;;;;17.63;11.67;;;18.50;99.90;;;;;;5090481;28;20178;-69
2023/09/09 01:06:54;;;;;;;15.43;11.03;;;18.40;99.90;;;;;;5090412;28;20450;-69
2023/09/09 01:09:20;;;;;;;12.70;11.00;;;18.40;99.90;;;;;;5091113;28;20817;-69
2023/09/09 01:11:46;;;;;;;12.80;10.80;;;18.40;99.90;;;;;;5089400;28;20527;-69
2023/09/09 01:14:12;;;;;;;13.27;11.70;;;18.40;99.90;;;;;;5089460;28;20666;-69
2023/09/09 01:16:39;;;;;;;14.07;11.53;;;18.30;99.90;;;;;;5090634;28;20234;-70
2023/09/09 01:19:08;;;;;;;14.67;11.73;;;18.30;99.90;;;;;;5091203;28;20424;-69
2023/09/09 01:21:35;;;;;;;20.33;12.20;;;18.30;99.90;;;;;;5090614;28;20420;-70
2023/09/09 01:24:01;;;;;;;18.07;13.67;;;18.30;99.90;;;;;;5090962;28;21006;-70
2023/09/09 01:26:27;;;;;;;17.00;13.13;;;18.20;99.90;;;;;;5090704;28;20439;-69
2023/09/09 01:28:53;;;;;;;16.00;12.20;;;18.30;99.90;;;;;;5090646;28;20179;-70
2023/09/09 01:31:18;;;;;;;14.20;11.23;;;18.20;99.90;;;;;;5090788;28;20214;-70
2023/09/09 01:33:44;;;;;;;15.93;11.10;;;18.20;99.90;;;;;;5089283;28;20979;-70
2023/09/09 01:36:11;;;;;;;15.40;11.57;;;18.20;99.90;;;;;;5089359;28;20688;-70
2023/09/09 01:38:36;;;;;;;18.40;12.00;;;18.20;99.90;;;;;;5090493;28;20183;-70
2023/09/09 01:41:05;;;;;;;17.07;12.60;;;18.10;99.90;;;;;;5090282;28;20421;-70
2023/09/09 01:43:30;;;;;;;18.17;11.57;;;18.00;99.90;;;;;;5090185;28;20174;-69
2023/09/09 01:45:56;;;;;;;17.27;12.83;;;18.10;99.90;;;;;;5088413;28;20447;-68
2023/09/09 01:48:21;;;;;;;23.43;13.47;;;18.10;99.90;;;;;;5090059;28;20193;-70
2023/09/09 01:50:47;;;;;;;16.30;12.70;;;18.10;99.90;;;;;;5090095;28;20253;-70
2023/09/09 01:53:13;;;;;;;15.07;12.40;;;18.10;99.90;;;;;;5089804;28;20582;-69
2023/09/09 01:55:38;;;;;;;16.00;13.17;;;18.10;99.90;;;;;;5089933;28;20655;-70
2023/09/09 01:58:04;;;;;;;16.23;12.10;;;18.10;99.90;;;;;;5090049;28;20181;-69
2023/09/09 02:00:30;;;;;;;16.53;12.53;;;18.10;99.90;;;;;;5089707;28;20188;-70
2023/09/09 02:02:56;;;;;;;19.23;12.53;;;18.10;99.90;;;;;;5088232;28;20189;-68
2023/09/09 02:05:22;;;;;;;18.77;12.20;;;18.00;99.90;;;;;;5089646;28;20455;-68
2023/09/09 02:07:47;;;;;;;15.50;12.30;;;18.00;99.90;;;;;;5089499;28;20199;-70
2023/09/09 02:10:13;;;;;;;20.73;12.97;;;17.90;99.90;;;;;;5087968;28;20438;-68
2023/09/09 02:12:39;;;;;;;17.50;12.33;;;17.90;99.90;;;;;;5089385;28;20210;-68
2023/09/09 02:15:05;;;;;;;14.93;13.20;;;17.80;99.90;;;;;;5089336;28;20271;-69
2023/09/09 02:17:30;;;;;;;24.43;11.90;;;17.90;99.90;;;;;;5087836;28;20236;-70
2023/09/09 02:19:56;;;;;;;15.03;12.67;;;17.90;99.90;;;;;;5088097;28;20924;-70
2023/09/09 02:22:23;;;;;;;20.80;13.90;;;17.70;99.90;;;;;;5089298;28;20182;-68
2023/09/09 02:24:56;;;;;;;27.33;14.47;;;17.70;99.90;;;;;;5088138;28;20431;-70
2023/09/09 02:27:22;;;;;;;19.03;14.40;;;17.70;99.90;;;;;;5089590;28;20440;-69
2023/09/09 02:29:48;;;;;;;15.50;13.90;;;17.70;99.90;;;;;;5089031;28;20415;-68
2023/09/09 02:32:14;;;;;;;17.20;13.73;;;17.70;99.90;;;;;;5088063;28;20995;-68
2023/09/09 02:34:39;;;;;;;16.33;14.43;;;17.70;99.90;;;;;;5090366;28;20684;-69
2023/09/09 02:37:31;;;;;;;17.00;14.50;;;17.80;99.90;;;;;;5090443;28;20282;-69
2023/09/09 02:39:57;;;;;;;15.20;12.53;;;17.70;99.90;;;;;;5084989;28;20204;-68
2023/09/09 02:42:24;;;;;;;17.53;13.10;;;17.80;99.90;;;;;;5089907;28;20420;-68
2023/09/09 02:44:49;;;;;;;18.13;13.20;;;17.70;99.90;;;;;;5090146;28;20291;-69
2023/09/09 02:47:15;;;;;;;14.80;11.43;;;17.60;99.90;;;;;;5089653;28;20555;-70
2023/09/09 02:49:43;;;;;;;19.50;13.20;;;17.60;99.90;;;;;;5089631;28;20427;-69
2023/09/09 02:52:10;;;;;;;18.47;12.40;;;17.60;99.90;;;;;;5089305;28;20997;-70
2023/09/09 02:54:38;;;;;;;18.77;13.10;;;17.60;99.90;;;;;;5089089;28;20441;-70
2023/09/09 02:57:05;;;;;;;13.60;11.40;;;17.50;99.90;;;;;;5088419;28;20446;-69
2023/09/09 02:59:35;;;;;;;13.60;12.20;;;17.50;99.90;;;;;;5088684;28;20424;-70
2023/09/09 03:02:01;;;;;;;17.20;13.43;;;17.50;99.90;;;;;;5086996;28;20456;-69
2023/09/09 03:04:27;;;;;;;13.80;12.17;;;17.60;99.90;;;;;;5088515;28;20443;-69
2023/09/09 03:06:52;;;;;;;16.30;12.90;;;17.60;99.90;;;;;;5088680;28;20443;-69
2023/09/09 03:09:18;;;;;;;17.07;12.37;;;17.50;99.90;;;;;;5088449;28;20452;-70
2023/09/09 03:11:43;;;;;;;35.23;13.57;;;17.40;99.90;;;;;;5087245;28;20219;-70
2023/09/09 03:14:09;;;;;;;13.40;12.00;;;17.50;99.90;;;;;;5088338;28;20722;-70
2023/09/09 03:16:35;;;;;;;17.70;13.23;;;17.40;99.90;;;;;;5086843;28;20205;-70
2023/09/09 03:19:01;;;;;;;19.40;11.93;;;17.50;99.90;;;;;;5088189;28;20190;-70
2023/09/09 03:21:27;;;;;;;16.70;13.63;;;17.40;99.90;;;;;;5088310;28;20415;-69
2023/09/09 03:23:52;;;;;;;15.40;13.17;;;17.40;99.90;;;;;;5086924;28;20198;-70
2023/09/09 03:26:22;;;;;;;17.63;13.53;;;17.40;99.90;;;;;;5088251;28;20196;-69
2023/09/09 03:28:49;;;;;;;15.20;12.53;;;17.40;99.90;;;;;;5088097;28;20181;-69
2023/09/09 03:31:14;;;;;;;21.43;14.30;;;17.40;99.90;;;;;;5088213;28;20413;-69
2023/09/09 03:33:40;;;;;;;14.90;13.40;;;17.40;99.90;;;;;;5088082;28;20592;-69
2023/09/09 03:36:07;;;;;;;13.57;12.17;;;17.40;99.90;;;;;;5086707;28;20630;-69
2023/09/09 03:38:32;;;;;;;14.80;13.00;;;17.40;99.90;;;;;;5088093;28;20464;-69
2023/09/09 03:40:58;;;;;;;20.30;12.50;;;17.40;99.90;;;;;;5088124;28;20433;-69
2023/09/09 03:43:24;;;;;;;20.00;13.70;;;17.40;99.90;;;;;;5088007;28;20196;-70
2023/09/09 03:45:56;;;;;;;15.33;12.80;;;17.40;99.90;;;;;;5088036;28;20629;-69
2023/09/09 03:48:23;;;;;;;17.20;13.17;;;17.30;99.90;;;;;;5087989;28;20204;-69
2023/09/09 03:50:48;;;;;;;15.00;13.30;;;17.30;99.90;;;;;;5086629;28;20429;-69
2023/09/09 03:53:14;;;;;;;20.60;14.80;;;17.30;99.90;;;;;;5086441;28;20456;-69
2023/09/09 03:55:39;;;;;;;17.10;13.77;;;17.30;99.90;;;;;;5087812;28;20616;-69
2023/09/09 03:58:05;;;;;;;19.47;13.63;;;17.20;99.90;;;;;;5087780;28;20560;-69
2023/09/09 04:00:30;;;;;;;14.33;12.63;;;17.20;99.90;;;;;;5087683;28;20182;-69
2023/09/09 04:02:56;;;;;;;21.40;13.10;;;17.30;99.90;;;;;;5087734;28;20185;-69
2023/09/09 04:05:23;;;;;;;20.90;14.73;;;17.20;99.90;;;;;;5087742;28;20193;-69
2023/09/09 04:07:48;;;;;;;17.80;13.23;;;17.20;99.90;;;;;;5087834;28;20192;-69
2023/09/09 04:10:14;;;;;;;16.43;13.20;;;17.30;99.90;;;;;;5090882;28;20422;-69
2023/09/09 04:12:39;;;;;;;17.30;14.07;;;17.20;99.90;;;;;;5091349;28;20213;-70
2023/09/09 04:15:06;;;;;;;16.67;13.67;;;17.20;99.90;;;;;;5091397;28;20186;-70
2023/09/09 04:17:32;;;;;;;14.97;12.97;;;17.20;99.90;;;;;;5091503;28;20175;-69
2023/09/09 04:19:57;;;;;;;16.60;12.57;;;17.20;99.90;;;;;;5091339;28;20423;-69
2023/09/09 04:22:23;;;;;;;18.17;14.40;;;17.20;99.90;;;;;;5091236;28;20191;-69
2023/09/09 04:24:49;;;;;;;15.27;13.30;;;17.10;99.90;;;;;;5089786;28;20188;-69
2023/09/09 04:27:14;;;;;;;18.00;13.80;;;17.00;99.90;;;;;;5090978;28;20530;-69
2023/09/09 04:29:40;;;;;;;17.87;14.50;;;17.00;99.90;;;;;;5089568;28;20189;-69
2023/09/09 04:32:06;;;;;;;16.20;14.20;;;17.00;99.90;;;;;;5090928;28;20678;-69
2023/09/09 04:34:31;;;;;;;16.73;14.00;;;17.00;99.90;;;;;;5089532;28;20195;-69
2023/09/09 04:36:57;;;;;;;16.10;14.23;;;17.00;99.90;;;;;;5090688;28;20724;-70
2023/09/09 04:39:22;;;;;;;17.43;14.63;;;17.00;99.90;;;;;;5090747;28;20181;-69
2023/09/09 04:41:48;;;;;;;19.30;14.87;;;17.00;99.90;;;;;;5090720;28;20277;-68
2023/09/09 04:44:14;;;;;;;20.60;15.70;;;17.00;99.90;;;;;;5090738;28;20592;-68
2023/09/09 04:46:39;;;;;;;23.20;15.80;;;16.90;99.90;;;;;;5090861;28;20247;-68
2023/09/09 04:49:05;;;;;;;19.37;15.70;;;16.90;99.90;;;;;;5090771;28;20944;-68
2023/09/09 04:51:31;;;;;;;23.93;16.40;;;16.90;99.90;;;;;;5088994;28;20197;-69
2023/09/09 04:53:57;;;;;;;24.43;16.93;;;17.00;99.90;;;;;;5088988;28;20192;-68
2023/09/09 04:56:23;;;;;;;18.67;15.93;;;16.90;99.90;;;;;;5091054;28;20205;-68
2023/09/09 04:58:49;;;;;;;22.70;17.13;;;17.00;99.90;;;;;;5090487;28;20773;-68
2023/09/09 05:01:14;;;;;;;18.33;15.77;;;17.00;99.90;;;;;;5090498;28;20175;-71
2023/09/09 05:03:40;;;;;;;18.03;15.60;;;17.00;99.90;;;;;;5090375;28;20778;-69
2023/09/09 05:06:06;;;;;;;21.23;16.20;;;17.00;99.90;;;;;;5090721;28;20310;-68
2023/09/09 05:08:31;;;;;;;19.17;15.27;;;17.00;99.90;;;;;;5090540;28;20178;-69
2023/09/09 05:10:57;;;;;;;21.40;16.33;;;17.00;99.90;;;;;;5090424;28;20544;-68
2023/09/09 05:13:23;;;;;;;19.57;14.00;;;17.00;99.90;;;;;;5090208;28;20205;-69
2023/09/09 05:15:50;;;;;;;17.27;13.67;;;17.10;99.90;;;;;;5089167;28;20207;-69
2023/09/09 05:18:16;;;;;;;16.83;15.03;;;17.00;99.90;;;;;;5090353;28;20274;-69
2023/09/09 05:20:42;;;;;;;20.10;16.20;;;17.10;99.90;;;;;;5089933;28;20499;-68
2023/09/09 05:23:07;;;;;;;23.80;16.27;;;17.10;99.90;;;;;;5088699;28;20853;-68
2023/09/09 05:25:33;;;;;;;20.37;13.90;;;16.90;99.90;;;;;;5090006;28;20210;-68
2023/09/09 05:27:58;;;;;;;19.10;15.07;;;17.00;99.90;;;;;;5090020;28;20783;-68
2023/09/09 05:30:24;;;;;;;20.00;14.90;;;17.10;99.90;;;;;;5088626;28;20192;-68
2023/09/09 05:32:49;;;;;;;18.67;14.70;;;17.20;99.90;;;;;;5089987;28;20216;-69
2023/09/09 05:35:15;;;;;;;18.40;14.73;;;17.20;99.90;;;;;;5089980;28;20604;-69
2023/09/09 05:37:41;;;;;;;15.30;13.43;;;17.30;99.90;;;;;;5089893;28;20182;-70
2023/09/09 05:40:08;;;;;;;17.40;14.53;;;17.30;99.90;;;;;;5090029;28;20546;-69
2023/09/09 05:42:33;;;;;;;21.93;14.23;;;17.30;99.90;;;;;;5088335;28;20485;-69
2023/09/09 05:44:59;;;;;;;15.20;13.57;;;17.40;99.90;;;;;;5090244;28;20421;-68
2023/09/09 05:47:24;;;;;;;19.20;12.70;;;17.50;99.90;;;;;;5090747;28;20832;-68
2023/09/09 05:49:50;;;;;;;17.83;12.70;;;17.50;99.90;;;;;;5089396;28;20181;-69
2023/09/09 05:52:15;;;;;;;17.03;12.60;;;17.60;99.90;;;;;;5090448;28;20637;-68
2023/09/09 05:54:42;;;;;;;20.37;14.43;;;17.70;99.90;;;;;;5090315;28;20195;-68
2023/09/09 05:57:08;;;;;;;18.80;13.63;;;17.80;99.90;;;;;;5090060;28;20196;-69
2023/09/09 05:59:34;;;;;;;15.50;13.73;;;17.90;99.90;;;;;;5090258;28;20499;-68
2023/09/09 06:01:59;;;;;;;18.57;13.30;;;18.00;99.90;;;;;;5089963;28;20434;-69
2023/09/09 06:04:25;;;;;;;15.37;13.33;;;18.10;99.90;;;;;;5089985;28;20197;-69
2023/09/09 06:06:51;;;;;;;18.63;13.17;;;18.30;99.90;;;;;;5089688;28;20461;-69
2023/09/09 06:09:16;;;;;;;20.20;14.23;;;18.40;99.90;;;;;;5090046;28;20607;-69
2023/09/09 06:11:42;;;;;;;13.93;11.70;;;18.60;99.90;;;;;;5089887;28;20199;-69
2023/09/09 06:14:07;;;;;;;13.90;12.40;;;18.90;99.90;;;;;;5089922;28;20541;-70
2023/09/09 06:16:33;;;;;;;13.00;11.30;;;19.30;99.90;;;;;;5089773;28;20251;-70
2023/09/09 06:18:59;;;;;;;20.40;12.43;;;19.70;99.90;;;;;;5089551;28;20183;-71
2023/09/09 06:21:25;;;;;;;22.73;12.83;;;19.90;99.90;;;;;;5089559;28;20422;-70
2023/09/09 06:23:51;;;;;;;14.27;12.10;;;20.20;99.90;;;;;;5090038;28;20182;-70
2023/09/09 06:26:17;;;;;;;18.90;13.00;;;20.50;99.90;;;;;;5089163;28;20494;-70
2023/09/09 06:28:42;;;;;;;13.30;11.90;;;20.70;99.90;;;;;;5089088;28;20185;-70
2023/09/09 06:31:08;;;;;;;13.23;10.97;;;20.80;99.90;;;;;;5088358;28;20198;-70
2023/09/09 06:33:34;;;;;;;15.67;12.20;;;20.90;99.90;;;;;;5088815;28;20283;-70
2023/09/09 06:36:00;;;;;;;18.00;12.90;;;21.00;99.90;;;;;;5088897;28;20199;-69
2023/09/09 06:38:25;;;;;;;15.17;13.57;;;20.90;99.90;;;;;;5088898;28;20423;-70
2023/09/09 06:40:51;;;;;;;17.73;15.00;;;20.60;99.90;;;;;;5087442;28;20666;-70
2023/09/09 06:43:21;;;;;;;23.03;12.90;;;20.30;99.90;;;;;;5088579;28;20190;-70
2023/09/09 06:45:48;;;;;;;14.93;13.00;;;20.30;99.90;;;;;;5088746;28;20225;-70
2023/09/09 06:48:16;;;;;;;15.10;12.60;;;20.10;99.90;;;;;;5088912;28;20443;-70
2023/09/09 06:50:45;;;;;;;17.73;13.90;;;20.00;99.90;;;;;;5088968;28;20447;-70
2023/09/09 06:53:10;;;;;;;18.00;14.17;;;19.80;99.90;;;;;;5087020;28;20485;-70
2023/09/09 06:55:36;;;;;;;20.40;14.07;;;19.80;99.90;;;;;;5088303;28;20923;-70
2023/09/09 06:58:03;;;;;;;18.03;13.77;;;19.70;99.90;;;;;;5087044;28;20192;-71
2023/09/09 07:00:29;;;;;;;22.73;14.17;;;19.70;99.90;;;;;;5088590;28;20210;-70
2023/09/09 07:02:55;;;;;;;14.10;12.70;;;19.70;99.90;;;;;;5088564;28;20428;-69
2023/09/09 07:05:20;;;;;;;15.67;13.00;;;19.60;99.90;;;;;;5088394;28;20792;-71
2023/09/09 07:07:46;;;;;;;14.13;12.67;;;19.70;99.90;;;;;;5087199;28;20269;-71
2023/09/09 07:10:12;;;;;;;17.67;13.43;;;19.60;99.90;;;;;;5088386;28;20557;-71
2023/09/09 07:12:38;;;;;;;18.17;12.20;;;19.60;99.90;;;;;;5088447;28;20570;-71
2023/09/09 07:15:04;;;;;;;18.57;14.47;;;19.70;99.90;;;;;;5088414;28;20414;-71
2023/09/09 07:17:30;;;;;;;20.47;13.13;;;19.70;99.90;;;;;;5088536;28;20420;-71
2023/09/09 07:19:56;;;;;;;19.43;13.37;;;19.80;99.90;;;;;;5086891;28;20424;-70
2023/09/09 07:22:21;;;;;;;18.40;13.20;;;19.80;99.90;;;;;;5086774;28;20235;-70
2023/09/09 07:24:47;;;;;;;19.77;13.73;;;19.90;99.90;;;;;;5086656;28;20244;-70
2023/09/09 07:27:12;;;;;;;19.20;12.30;;;20.00;99.90;;;;;;5088383;28;20225;-70
2023/09/09 07:29:38;;;;;;;17.33;15.07;;;20.10;99.90;;;;;;5088300;28;20190;-71
2023/09/09 07:32:04;;;;;;;17.50;13.30;;;20.20;99.90;;;;;;5086893;28;20275;-69
2023/09/09 07:34:30;;;;;;;16.13;12.37;;;20.30;99.90;;;;;;5088350;28;20531;-69
2023/09/09 07:36:55;;;;;;;17.03;12.90;;;20.30;99.90;;;;;;5088177;28;20807;-69
2023/09/09 07:39:21;;;;;;;21.10;12.87;;;20.40;99.90;;;;;;5088160;28;20214;-69
2023/09/09 07:41:46;;;;;;;23.13;12.47;;;20.50;99.90;;;;;;5088071;28;20270;-69
2023/09/09 07:44:12;;;;;;;20.10;11.80;;;20.60;99.90;;;;;;5091381;28;20554;-69
2023/09/09 07:46:38;;;;;;;17.33;12.33;;;20.80;99.90;;;;;;5091882;28;20222;-69
2023/09/09 07:49:03;;;;;;;23.60;12.37;;;20.90;99.90;;;;;;5091916;28;20178;-69
2023/09/09 07:51:29;;;;;;;21.53;12.67;;;21.00;99.90;;;;;;5073425;28;20282;-69
2023/09/09 07:53:54;;;;;;;21.93;13.37;;;21.10;99.90;;;;;;5092054;28;20236;-69
2023/09/09 07:56:20;;;;;;;18.43;12.73;;;21.20;99.90;;;;;;5091772;28;20224;-69
2023/09/09 07:58:45;;;;;;;17.33;11.40;;;21.30;99.90;;;;;;5090469;28;20184;-69
2023/09/09 08:01:13;;;;;;;14.13;12.63;;;21.40;99.90;;;;;;5090326;28;20188;-69
2023/09/09 08:03:38;;;;;;;13.93;12.60;;;21.50;99.90;;;;;;5091757;28;20181;-69
2023/09/09 08:06:06;;;;;;;13.63;11.90;;;21.70;99.90;;;;;;5091587;28;20448;-69
2023/09/09 08:08:37;;;;;;;14.77;11.80;;;21.80;99.90;;;;;;5091665;28;20184;-69
2023/09/09 08:11:04;;;;;;;12.43;11.07;;;21.90;99.90;;;;;;5091552;28;20504;-69
2023/09/09 08:13:29;;;;;;;15.07;11.00;;;22.10;99.90;;;;;;5091535;28;20458;-69
2023/09/09 08:15:57;;;;;;;13.40;11.27;;;22.20;99.90;;;;;;5091428;28;20906;-69
2023/09/09 08:18:23;;;;;;;17.03;11.33;;;22.30;99.90;;;;;;5091461;28;20190;-69
2023/09/09 08:20:51;;;;;;;14.40;9.90;;;22.40;99.90;;;;;;5091457;28;20815;-69
2023/09/09 08:23:18;;;;;;;11.33;10.13;;;22.50;99.90;;;;;;5091445;28;20202;-69
2023/09/09 08:25:44;;;;;;;12.60;11.30;;;22.70;99.90;;;;;;5091285;28;20824;-69
2023/09/09 08:28:09;;;;;;;10.57;9.50;;;22.90;99.90;;;;;;5091504;28;20440;-69
2023/09/09 08:30:35;;;;;;;13.90;9.63;;;23.00;99.90;;;;;;5091299;28;20427;-69
2023/09/09 08:33:01;;;;;;;14.40;10.10;;;23.10;99.90;;;;;;5091603;28;20212;-69
2023/09/09 08:35:29;;;;;;;14.50;11.20;;;23.20;99.90;;;;;;5091435;28;20201;-69
2023/09/09 08:37:55;;;;;;;10.50;9.50;;;23.30;99.90;;;;;;5091757;28;20439;-69
2023/09/09 08:40:20;;;;;;;18.20;11.00;;;23.30;99.90;;;;;;5091336;28;20422;-69
2023/09/09 08:43:05;;;;;;;11.93;10.73;;;23.40;99.90;;;;;;5089974;28;20195;-69
2023/09/09 08:46:01;;;;;;;19.17;12.10;;;23.70;99.90;;;;;;5091059;28;20202;-70
2023/09/09 08:48:29;;;;;;;19.67;10.53;;;23.90;99.90;;;;;;5089393;28;20971;-69
2023/09/09 08:50:59;;;;;;;17.03;11.80;;;24.10;99.90;;;;;;5090825;28;20424;-69
2023/09/09 08:53:27;;;;;;;11.17;10.07;;;24.20;99.90;;;;;;5091278;28;20517;-69
2023/09/09 08:55:55;;;;;;;13.23;11.70;;;24.40;99.90;;;;;;5089876;28;21151;-69
2023/09/09 08:58:21;;;;;;;15.30;11.03;;;24.60;99.90;;;;;;5090767;28;21014;-69
2023/09/09 09:00:47;;;;;;;16.93;11.03;;;24.70;99.90;;;;;;5090706;28;20438;-69
2023/09/09 09:03:14;;;;;;;12.00;10.43;;;24.80;99.90;;;;;;5090601;28;20435;-69
2023/09/09 09:05:41;;;;;;;13.00;10.97;;;25.10;99.90;;;;;;5090574;28;20448;-69
2023/09/09 09:08:09;;;;;;;14.43;10.20;;;25.30;99.90;;;;;;5090739;28;20427;-70
2023/09/09 09:10:36;;;;;;;11.23;9.10;;;25.70;99.90;;;;;;5090983;28;20795;-69
2023/09/09 09:13:02;;;;;;;13.67;10.33;;;25.80;99.90;;;;;;5090369;28;20986;-70
2023/09/09 09:15:31;;;;;;;11.10;9.83;;;25.90;99.90;;;;;;5090313;28;20454;-69
2023/09/09 09:17:59;;;;;;;12.03;9.77;;;26.20;99.90;;;;;;5088779;28;20196;-69
2023/09/09 09:20:27;;;;;;;11.60;10.40;;;26.40;99.90;;;;;;5090298;28;20981;-70
2023/09/09 09:22:57;;;;;;;11.40;9.67;;;27.00;99.90;;;;;;5090186;28;20432;-70
2023/09/09 09:25:24;;;;;;;10.73;8.97;;;27.30;99.90;;;;;;5090158;28;20423;-70
2023/09/09 09:27:49;;;;;;;10.93;9.83;;;27.80;99.90;;;;;;5090033;28;20423;-70
2023/09/09 09:30:23;;;;;;;17.43;9.17;;;28.20;99.90;;;;;;5090219;28;20486;-70
2023/09/09 09:32:52;;;;;;;10.80;9.73;;;28.40;99.90;;;;;;5088687;28;20247;-69
2023/09/09 09:35:26;;;;;;;10.53;9.10;;;28.60;99.90;;;;;;5089893;28;20408;-69
2023/09/09 09:37:56;;;;;;;21.43;9.57;;;29.00;99.90;;;;;;5089948;28;20423;-69
2023/09/09 09:40:22;;;;;;;10.57;9.47;;;29.40;99.90;;;;;;5089783;28;20504;-70
2023/09/09 09:42:49;;;;;;;10.57;8.73;;;29.60;99.90;;;;;;5089875;28;20499;-70
2023/09/09 09:45:15;;;;;;;12.37;9.03;;;30.00;99.90;;;;;;5089635;28;20182;-70
2023/09/09 09:47:47;;;;;;;10.23;8.90;;;30.30;99.90;;;;;;5089628;28;20774;-70
2023/09/09 09:50:28;;;;;;;9.70;8.70;;;30.40;99.90;;;;;;5089607;28;20429;-70
2023/09/09 09:53:00;;;;;;;11.57;8.73;;;30.50;99.90;;;;;;5087947;28;20552;-70
2023/09/09 09:55:28;;;;;;;13.07;8.27;;;30.40;99.90;;;;;;5089355;28;20459;-70
2023/09/09 09:58:02;;;;;;;16.83;9.07;;;30.90;99.90;;;;;;5089569;28;20938;-70
2023/09/09 10:00:28;;;;;;;11.20;8.10;;;31.10;99.10;;;;;;5089497;28;20416;-70
2023/09/09 10:02:58;;;;;;;8.30;7.60;;;31.40;99.70;;;;;;5089399;28;20426;-70
2023/09/09 10:05:26;;;;;;;9.63;8.73;;;31.60;98.00;;;;;;5089231;28;20527;-71
2023/09/09 10:08:06;;;;;;;9.90;8.50;;;31.70;97.70;;;;;;5089289;28;20984;-70
2023/09/09 10:10:35;;;;;;;10.23;7.77;;;32.10;96.30;;;;;;5089328;28;20438;-70
2023/09/09 10:13:11;;;;;;;9.27;8.30;;;32.20;95.80;;;;;;5089150;28;20468;-70
2023/09/09 10:15:38;;;;;;;10.60;9.30;;;32.30;95.00;;;;;;5089259;28;20423;-70
2023/09/09 10:18:05;;;;;;;8.13;7.33;;;32.50;93.40;;;;;;5089394;28;20923;-69
2023/09/09 10:20:31;;;;;;;9.97;7.23;;;32.60;93.40;;;;;;5089134;28;20440;-71
2023/09/09 10:23:00;;;;;;;8.93;7.93;;;32.80;92.70;;;;;;5089073;28;20413;-69
2023/09/09 10:25:33;;;;;;;8.53;7.83;;;32.80;91.90;;;;;;5089305;28;20493;-69
2023/09/09 10:28:00;;;;;;;8.77;7.87;;;33.00;91.70;;;;;;5089545;28;20437;-70
2023/09/09 10:30:27;;;;;;;11.23;8.07;;;32.90;91.40;;;;;;5089889;28;20421;-69
2023/09/09 10:32:53;;;;;;;8.63;7.53;;;32.90;90.90;;;;;;5089611;28;20460;-69
2023/09/09 10:35:20;;;;;;;7.93;7.23;;;32.80;90.60;;;;;;5089658;28;20515;-69
2023/09/09 10:37:46;;;;;;;8.40;7.47;;;33.00;90.50;;;;;;5089588;28;20965;-70
2023/09/09 10:40:14;;;;;;;11.40;7.73;;;33.00;90.70;;;;;;5087950;28;20428;-70
2023/09/09 10:42:43;;;;;;;11.17;8.33;;;33.10;88.80;;;;;;5089244;28;20416;-70
2023/09/09 10:45:28;;;;;;;8.70;8.00;;;33.30;88.90;;;;;;5089790;28;20420;-70
2023/09/09 10:48:05;;;;;;;8.70;7.90;;;33.20;89.20;;;;;;5089265;28;20412;-70
2023/09/09 10:50:52;;;;;;;10.40;7.50;;;33.20;89.70;;;;;;5089678;28;20936;-70
2023/09/09 10:53:22;;;;;;;8.93;7.93;;;33.00;87.10;;;;;;5089554;28;20471;-69
2023/09/09 10:55:51;;;;;;;9.67;6.87;;;33.30;87.50;;;;;;5089725;28;20552;-70
2023/09/09 10:58:18;;;;;;;9.57;8.00;;;33.30;88.00;;;;;;5089635;28;20417;-70
2023/09/09 11:00:46;;;;;;;8.40;7.60;;;33.20;86.40;;;;;;5089652;28;20431;-69
2023/09/09 11:03:20;;;;;;;12.20;7.40;;;33.40;85.70;;;;;;5071480;28;20424;-69
2023/09/09 11:06:03;;;;;;;8.50;7.67;;;33.20;86.80;;;;;;5089506;28;20444;-68
2023/09/09 11:08:28;;;;;;;8.13;7.40;;;33.30;86.40;;;;;;5089565;28;20417;-70
2023/09/09 11:11:12;;;;;;;9.30;7.17;;;33.40;85.50;;;;;;5089352;28;20530;-71
2023/09/09 11:13:40;;;;;;;8.23;7.27;;;33.20;84.30;;;;;;5071079;28;20217;-69
2023/09/09 11:16:06;;;;;;;12.80;7.50;;;33.20;84.00;;;;;;5089435;28;20420;-70
2023/09/09 11:18:36;;;;;;;8.33;7.50;;;33.20;83.60;;;;;;5093864;28;20884;-71
2023/09/09 11:21:05;;;;;;;6.93;6.43;;;33.10;86.40;;;;;;5096079;28;20182;-69
2023/09/09 11:23:32;;;;;;;7.80;7.10;;;33.10;87.80;;;;;;5096068;28;20424;-70
2023/09/09 11:25:59;;;;;;;8.27;7.47;;;33.20;86.20;;;;;;5095575;28;20444;-70
2023/09/09 11:28:26;;;;;;;9.73;7.83;;;33.20;85.60;;;;;;5094538;28;20774;-69
2023/09/09 11:30:51;;;;;;;10.47;7.20;;;33.20;90.50;;;;;;5095537;28;20449;-71
2023/09/09 11:33:25;;;;;;;7.83;6.87;;;33.30;84.90;;;;;;5095751;28;20495;-71
2023/09/09 11:35:50;;;;;;;11.20;7.50;;;33.50;87.80;;;;;;5094546;28;20777;-70
2023/09/09 11:38:16;;;;;;;10.30;7.17;;;33.60;90.80;;;;;;5094138;28;20447;-69
2023/09/09 11:40:45;;;;;;;7.37;6.67;;;33.60;87.20;;;;;;5095563;28;20231;-71
2023/09/09 11:43:14;;;;;;;6.80;6.30;;;33.70;87.80;;;;;;5076768;28;20662;-69
2023/09/09 11:45:39;;;;;;;10.73;6.87;;;33.60;89.60;;;;;;5094953;28;20444;-70
2023/09/09 11:48:05;;;;;;;8.03;6.63;;;33.60;90.90;;;;;;5095136;28;20919;-70
2023/09/09 11:50:45;;;;;;;7.50;6.60;;;33.40;85.90;;;;;;5095223;28;20189;-71
2023/09/09 11:53:12;;;;;;;14.87;6.77;;;33.20;83.50;;;;;;5095217;28;20510;-70
2023/09/09 11:55:38;;;;;;;6.97;6.27;;;33.20;90.40;;;;;;5095204;28;20461;-70
2023/09/09 11:58:04;;;;;;;6.97;6.20;;;33.10;85.00;;;;;;5093615;28;20428;-70
2023/09/09 12:00:30;;;;;;;7.03;6.23;;;33.20;84.20;;;;;;5094993;28;20445;-71
2023/09/09 12:02:55;;;;;;;9.20;6.53;;;32.90;90.70;;;;;;5095187;28;20187;-70
2023/09/09 12:05:27;;;;;;;6.57;5.80;;;32.90;88.50;;;;;;5095179;28;20194;-70
2023/09/09 12:07:54;;;;;;;12.00;5.67;;;33.00;83.00;;;;;;5094604;28;20297;-71
2023/09/09 12:10:19;;;;;;;12.07;6.50;;;33.10;89.20;;;;;;5094737;28;20515;-70
2023/09/09 12:12:46;;;;;;;9.10;6.83;;;33.20;84.80;;;;;;5094962;28;20209;-70
2023/09/09 12:15:14;;;;;;;6.90;6.20;;;33.20;89.70;;;;;;5095430;28;20178;-70
2023/09/09 12:17:40;;;;;;;7.17;6.20;;;32.90;88.30;;;;;;5095618;28;20412;-69
2023/09/09 12:20:09;;;;;;;8.07;5.90;;;32.80;82.40;;;;;;5095591;28;20485;-71
2023/09/09 12:22:35;;;;;;;8.50;6.50;;;32.90;85.70;;;;;;5095714;28;20570;-71
2023/09/09 12:25:05;;;;;;;8.20;5.70;;;33.00;91.40;;;;;;5095538;28;20424;-69
2023/09/09 12:27:44;;;;;;;6.20;5.60;;;33.10;91.60;;;;;;5093771;28;20425;-70
2023/09/09 12:30:30;;;;;;;9.30;6.43;;;33.20;89.20;;;;;;5091409;28;20427;-70